sensor_id;sensor_type;location;lat;lon;timestamp;P1;durP1;ratioP1;P2;durP2;ratioP2
12165;SDS011;6146;48.128;11.476;2022-09-17T00:02:19;6.97;;;6.27;;
12165;SDS011;6146;48.128;11.476;2022-09-17T00:04:46;7.53;;;6.20;;
12165;SDS011;6146;48.128;11.476;2022-09-17T00:07:13;7.43;;;6.30;;
12165;SDS011;6146;48.128;11.476;2022-09-17T00:09:38;6.27;;;5.67;;
12165;SDS011;6146;48.128;11.476;2022-09-17T00:12:04;7.27;;;5.70;;
12165;SDS011;6146;48.128;11.476;2022-09-17T00:14:29;6.33;;;5.50;;
12165;SDS011;6146;48.128;11.476;2022-09-17T00:16:55;9.03;;;5.50;;
12165;SDS011;6146;48.128;11.476;2022-09-17T00:19:21;6.13;;;5.20;;
12165;SDS011;6146;48.128;11.476;2022-09-17T00:21:47;6.57;;;4.53;;
12165;SDS011;6146;48.128;11.476;2022-09-17T00:24:14;4.50;;;4.10;;
12165;SDS011;6146;48.128;11.476;2022-09-17T00:26:40;4.20;;;3.80;;
12165;SDS011;6146;48.128;11.476;2022-09-17T00:29:06;7.67;;;4.23;;
12165;SDS011;6146;48.128;11.476;2022-09-17T00:31:32;4.63;;;4.20;;
12165;SDS011;6146;48.128;11.476;2022-09-17T00:33:58;3.70;;;3.40;;
12165;SDS011;6146;48.128;11.476;2022-09-17T00:36:25;4.20;;;3.80;;
12165;SDS011;6146;48.128;11.476;2022-09-17T00:38:52;4.43;;;3.63;;
12165;SDS011;6146;48.128;11.476;2022-09-17T00:41:19;3.93;;;3.63;;
12165;SDS011;6146;48.128;11.476;2022-09-17T00:43:47;4.83;;;3.47;;
12165;SDS011;6146;48.128;11.476;2022-09-17T00:48:54;4.83;;;3.43;;
12165;SDS011;6146;48.128;11.476;2022-09-17T00:51:33;3.50;;;3.20;;
12165;SDS011;6146;48.128;11.476;2022-09-17T00:54:09;3.33;;;3.03;;
12165;SDS011;6146;48.128;11.476;2022-09-17T00:56:36;3.90;;;3.10;;
12165;SDS011;6146;48.128;11.476;2022-09-17T00:59:05;3.23;;;2.93;;
12165;SDS011;6146;48.128;11.476;2022-09-17T01:01:31;5.90;;;3.27;;
12165;SDS011;6146;48.128;11.476;2022-09-17T01:03:58;4.40;;;3.20;;
12165;SDS011;6146;48.128;11.476;2022-09-17T01:12:14;3.47;;;2.73;;
12165;SDS011;6146;48.128;11.476;2022-09-17T01:20:42;3.70;;;2.77;;
12165;SDS011;6146;48.128;11.476;2022-09-17T01:31:51;4.43;;;3.07;;
12165;SDS011;6146;48.128;11.476;2022-09-17T01:37:03;3.17;;;2.93;;
12165;SDS011;6146;48.128;11.476;2022-09-17T01:42:15;3.40;;;2.70;;
12165;SDS011;6146;48.128;11.476;2022-09-17T01:44:54;3.53;;;2.77;;
12165;SDS011;6146;48.128;11.476;2022-09-17T01:47:26;5.30;;;2.43;;
12165;SDS011;6146;48.128;11.476;2022-09-17T01:49:58;3.13;;;2.83;;
12165;SDS011;6146;48.128;11.476;2022-09-17T01:52:27;4.30;;;3.17;;
12165;SDS011;6146;48.128;11.476;2022-09-17T01:54:56;3.20;;;2.90;;
12165;SDS011;6146;48.128;11.476;2022-09-17T01:57:31;2.80;;;2.37;;
12165;SDS011;6146;48.128;11.476;2022-09-17T02:11:09;3.10;;;2.33;;
12165;SDS011;6146;48.128;11.476;2022-09-17T02:16:25;2.40;;;2.20;;
12165;SDS011;6146;48.128;11.476;2022-09-17T02:19:12;2.73;;;2.10;;
12165;SDS011;6146;48.128;11.476;2022-09-17T02:29:56;2.30;;;2.10;;
12165;SDS011;6146;48.128;11.476;2022-09-17T02:32:22;2.40;;;2.20;;
12165;SDS011;6146;48.128;11.476;2022-09-17T02:34:49;2.60;;;2.30;;
12165;SDS011;6146;48.128;11.476;2022-09-17T02:37:15;2.53;;;2.33;;
12165;SDS011;6146;48.128;11.476;2022-09-17T02:39:41;3.03;;;2.40;;
12165;SDS011;6146;48.128;11.476;2022-09-17T02:50:22;3.03;;;2.30;;
12165;SDS011;6146;48.128;11.476;2022-09-17T02:56:08;2.40;;;2.20;;
12165;SDS011;6146;48.128;11.476;2022-09-17T02:59:13;2.20;;;1.97;;
12165;SDS011;6146;48.128;11.476;2022-09-17T03:01:51;2.67;;;2.47;;
12165;SDS011;6146;48.128;11.476;2022-09-17T03:04:30;2.50;;;2.30;;
12165;SDS011;6146;48.128;11.476;2022-09-17T03:06:57;3.57;;;2.30;;
12165;SDS011;6146;48.128;11.476;2022-09-17T03:09:24;3.67;;;2.10;;
12165;SDS011;6146;48.128;11.476;2022-09-17T03:11:50;2.57;;;2.30;;
12165;SDS011;6146;48.128;11.476;2022-09-17T03:14:16;3.67;;;2.23;;
12165;SDS011;6146;48.128;11.476;2022-09-17T03:16:44;2.73;;;2.33;;
12165;SDS011;6146;48.128;11.476;2022-09-17T03:19:10;2.63;;;2.10;;
12165;SDS011;6146;48.128;11.476;2022-09-17T03:21:36;2.47;;;2.27;;
12165;SDS011;6146;48.128;11.476;2022-09-17T03:24:01;2.40;;;2.20;;
12165;SDS011;6146;48.128;11.476;2022-09-17T03:26:27;4.13;;;2.10;;
12165;SDS011;6146;48.128;11.476;2022-09-17T03:28:52;2.40;;;2.20;;
12165;SDS011;6146;48.128;11.476;2022-09-17T03:31:18;2.70;;;2.23;;
12165;SDS011;6146;48.128;11.476;2022-09-17T03:33:43;2.73;;;2.50;;
12165;SDS011;6146;48.128;11.476;2022-09-17T03:36:09;2.83;;;2.50;;
12165;SDS011;6146;48.128;11.476;2022-09-17T03:38:34;2.43;;;2.17;;
12165;SDS011;6146;48.128;11.476;2022-09-17T03:41:03;4.23;;;2.53;;
12165;SDS011;6146;48.128;11.476;2022-09-17T03:43:31;2.20;;;2.10;;
12165;SDS011;6146;48.128;11.476;2022-09-17T03:45:58;2.70;;;2.50;;
12165;SDS011;6146;48.128;11.476;2022-09-17T03:48:24;2.63;;;2.37;;
12165;SDS011;6146;48.128;11.476;2022-09-17T03:50:50;5.87;;;2.87;;
12165;SDS011;6146;48.128;11.476;2022-09-17T03:53:15;2.70;;;2.33;;
12165;SDS011;6146;48.128;11.476;2022-09-17T03:55:41;3.60;;;2.50;;
12165;SDS011;6146;48.128;11.476;2022-09-17T03:58:07;3.07;;;2.80;;
12165;SDS011;6146;48.128;11.476;2022-09-17T04:00:33;2.70;;;2.50;;
12165;SDS011;6146;48.128;11.476;2022-09-17T04:03:01;3.90;;;3.00;;
12165;SDS011;6146;48.128;11.476;2022-09-17T04:05:27;3.20;;;2.43;;
12165;SDS011;6146;48.128;11.476;2022-09-17T04:07:52;3.60;;;2.70;;
12165;SDS011;6146;48.128;11.476;2022-09-17T04:10:18;3.90;;;2.63;;
12165;SDS011;6146;48.128;11.476;2022-09-17T04:12:43;3.07;;;2.77;;
12165;SDS011;6146;48.128;11.476;2022-09-17T04:15:09;3.30;;;3.00;;
12165;SDS011;6146;48.128;11.476;2022-09-17T04:17:35;3.63;;;3.10;;
12165;SDS011;6146;48.128;11.476;2022-09-17T04:20:00;5.53;;;3.83;;
12165;SDS011;6146;48.128;11.476;2022-09-17T04:22:27;3.47;;;3.17;;
12165;SDS011;6146;48.128;11.476;2022-09-17T04:24:53;3.27;;;2.80;;
12165;SDS011;6146;48.128;11.476;2022-09-17T04:27:18;3.43;;;2.90;;
12165;SDS011;6146;48.128;11.476;2022-09-17T04:29:44;2.80;;;2.10;;
12165;SDS011;6146;48.128;11.476;2022-09-17T04:32:09;3.53;;;2.97;;
12165;SDS011;6146;48.128;11.476;2022-09-17T04:34:35;3.40;;;3.10;;
12165;SDS011;6146;48.128;11.476;2022-09-17T04:37:00;3.23;;;2.90;;
12165;SDS011;6146;48.128;11.476;2022-09-17T04:39:26;3.00;;;2.73;;
12165;SDS011;6146;48.128;11.476;2022-09-17T04:41:52;3.10;;;2.90;;
12165;SDS011;6146;48.128;11.476;2022-09-17T04:44:17;4.10;;;3.13;;
12165;SDS011;6146;48.128;11.476;2022-09-17T04:46:43;4.60;;;3.00;;
12165;SDS011;6146;48.128;11.476;2022-09-17T04:49:08;3.27;;;2.60;;
12165;SDS011;6146;48.128;11.476;2022-09-17T04:51:35;3.47;;;2.80;;
12165;SDS011;6146;48.128;11.476;2022-09-17T04:54:00;4.00;;;2.70;;
12165;SDS011;6146;48.128;11.476;2022-09-17T04:56:26;2.40;;;2.20;;
12165;SDS011;6146;48.128;11.476;2022-09-17T04:58:51;3.40;;;2.83;;
12165;SDS011;6146;48.128;11.476;2022-09-17T05:01:17;3.20;;;2.90;;
12165;SDS011;6146;48.128;11.476;2022-09-17T05:03:43;3.60;;;2.83;;
12165;SDS011;6146;48.128;11.476;2022-09-17T05:06:09;3.87;;;2.80;;
12165;SDS011;6146;48.128;11.476;2022-09-17T05:08:35;3.47;;;2.57;;
12165;SDS011;6146;48.128;11.476;2022-09-17T05:11:00;3.47;;;2.43;;
12165;SDS011;6146;48.128;11.476;2022-09-17T05:13:26;3.63;;;2.70;;
12165;SDS011;6146;48.128;11.476;2022-09-17T05:15:53;2.80;;;2.47;;
12165;SDS011;6146;48.128;11.476;2022-09-17T05:18:20;3.10;;;2.50;;
12165;SDS011;6146;48.128;11.476;2022-09-17T05:20:46;3.17;;;2.27;;
12165;SDS011;6146;48.128;11.476;2022-09-17T05:23:12;3.27;;;2.50;;
12165;SDS011;6146;48.128;11.476;2022-09-17T05:25:38;2.70;;;2.50;;
12165;SDS011;6146;48.128;11.476;2022-09-17T05:28:03;5.10;;;2.67;;
12165;SDS011;6146;48.128;11.476;2022-09-17T05:30:29;3.30;;;2.60;;
12165;SDS011;6146;48.128;11.476;2022-09-17T05:33:02;4.23;;;2.40;;
12165;SDS011;6146;48.128;11.476;2022-09-17T05:35:29;2.57;;;2.37;;
12165;SDS011;6146;48.128;11.476;2022-09-17T05:37:59;3.50;;;2.77;;
12165;SDS011;6146;48.128;11.476;2022-09-17T05:40:25;3.30;;;3.00;;
12165;SDS011;6146;48.128;11.476;2022-09-17T05:42:52;3.80;;;2.70;;
12165;SDS011;6146;48.128;11.476;2022-09-17T05:45:22;2.77;;;2.50;;
12165;SDS011;6146;48.128;11.476;2022-09-17T05:47:48;2.70;;;2.50;;
12165;SDS011;6146;48.128;11.476;2022-09-17T05:50:19;2.50;;;2.30;;
12165;SDS011;6146;48.128;11.476;2022-09-17T05:52:44;2.77;;;2.53;;
12165;SDS011;6146;48.128;11.476;2022-09-17T05:55:10;2.43;;;2.23;;
12165;SDS011;6146;48.128;11.476;2022-09-17T05:57:35;7.17;;;2.57;;
12165;SDS011;6146;48.128;11.476;2022-09-17T06:00:01;3.63;;;2.13;;
12165;SDS011;6146;48.128;11.476;2022-09-17T06:02:27;4.63;;;2.30;;
12165;SDS011;6146;48.128;11.476;2022-09-17T06:04:53;8.03;;;2.70;;
12165;SDS011;6146;48.128;11.476;2022-09-17T06:07:19;2.47;;;2.27;;
12165;SDS011;6146;48.128;11.476;2022-09-17T06:09:44;4.00;;;2.20;;
12165;SDS011;6146;48.128;11.476;2022-09-17T06:12:10;2.57;;;2.30;;
12165;SDS011;6146;48.128;11.476;2022-09-17T06:14:36;3.00;;;2.27;;
12165;SDS011;6146;48.128;11.476;2022-09-17T06:17:01;5.67;;;2.80;;
12165;SDS011;6146;48.128;11.476;2022-09-17T06:19:27;3.03;;;2.20;;
12165;SDS011;6146;48.128;11.476;2022-09-17T06:21:52;2.50;;;2.30;;
12165;SDS011;6146;48.128;11.476;2022-09-17T06:24:18;2.50;;;2.03;;
12165;SDS011;6146;48.128;11.476;2022-09-17T06:26:43;3.03;;;2.23;;
12165;SDS011;6146;48.128;11.476;2022-09-17T06:29:09;3.00;;;2.13;;
12165;SDS011;6146;48.128;11.476;2022-09-17T06:31:35;2.20;;;1.90;;
12165;SDS011;6146;48.128;11.476;2022-09-17T06:34:00;2.20;;;2.00;;
12165;SDS011;6146;48.128;11.476;2022-09-17T06:36:26;3.73;;;2.30;;
12165;SDS011;6146;48.128;11.476;2022-09-17T06:38:51;2.67;;;2.37;;
12165;SDS011;6146;48.128;11.476;2022-09-17T06:41:17;3.43;;;2.20;;
12165;SDS011;6146;48.128;11.476;2022-09-17T06:43:42;4.10;;;2.80;;
12165;SDS011;6146;48.128;11.476;2022-09-17T06:46:09;3.10;;;2.03;;
12165;SDS011;6146;48.128;11.476;2022-09-17T06:48:35;3.50;;;2.20;;
12165;SDS011;6146;48.128;11.476;2022-09-17T06:51:05;3.80;;;2.27;;
12165;SDS011;6146;48.128;11.476;2022-09-17T06:53:32;5.27;;;2.30;;
12165;SDS011;6146;48.128;11.476;2022-09-17T06:56:00;3.00;;;1.90;;
12165;SDS011;6146;48.128;11.476;2022-09-17T06:58:27;3.57;;;2.13;;
12165;SDS011;6146;48.128;11.476;2022-09-17T07:00:57;3.20;;;1.90;;
12165;SDS011;6146;48.128;11.476;2022-09-17T07:03:24;2.50;;;1.90;;
12165;SDS011;6146;48.128;11.476;2022-09-17T07:05:50;4.43;;;2.07;;
12165;SDS011;6146;48.128;11.476;2022-09-17T07:08:15;5.13;;;2.00;;
12165;SDS011;6146;48.128;11.476;2022-09-17T07:10:42;2.53;;;2.00;;
12165;SDS011;6146;48.128;11.476;2022-09-17T07:13:07;4.43;;;1.83;;
12165;SDS011;6146;48.128;11.476;2022-09-17T07:15:33;4.60;;;1.63;;
12165;SDS011;6146;48.128;11.476;2022-09-17T07:17:58;2.63;;;1.60;;
12165;SDS011;6146;48.128;11.476;2022-09-17T07:20:26;3.97;;;1.53;;
12165;SDS011;6146;48.128;11.476;2022-09-17T07:22:55;2.50;;;1.80;;
12165;SDS011;6146;48.128;11.476;2022-09-17T07:25:21;3.27;;;1.53;;
12165;SDS011;6146;48.128;11.476;2022-09-17T07:27:48;3.43;;;1.40;;
12165;SDS011;6146;48.128;11.476;2022-09-17T07:30:14;3.43;;;1.40;;
12165;SDS011;6146;48.128;11.476;2022-09-17T07:32:40;2.20;;;1.43;;
12165;SDS011;6146;48.128;11.476;2022-09-17T07:35:06;2.13;;;1.33;;
12165;SDS011;6146;48.128;11.476;2022-09-17T07:37:32;1.40;;;1.30;;
12165;SDS011;6146;48.128;11.476;2022-09-17T07:39:57;1.80;;;1.37;;
12165;SDS011;6146;48.128;11.476;2022-09-17T07:42:23;2.03;;;1.20;;
12165;SDS011;6146;48.128;11.476;2022-09-17T07:44:48;4.23;;;1.50;;
12165;SDS011;6146;48.128;11.476;2022-09-17T07:47:14;4.77;;;1.80;;
12165;SDS011;6146;48.128;11.476;2022-09-17T07:49:39;3.47;;;1.40;;
12165;SDS011;6146;48.128;11.476;2022-09-17T07:52:05;2.83;;;1.23;;
12165;SDS011;6146;48.128;11.476;2022-09-17T07:54:32;3.27;;;1.30;;
12165;SDS011;6146;48.128;11.476;2022-09-17T07:56:58;4.03;;;1.70;;
12165;SDS011;6146;48.128;11.476;2022-09-17T07:59:24;3.53;;;1.50;;
12165;SDS011;6146;48.128;11.476;2022-09-17T08:01:49;3.43;;;1.30;;
12165;SDS011;6146;48.128;11.476;2022-09-17T08:04:15;2.70;;;1.23;;
12165;SDS011;6146;48.128;11.476;2022-09-17T08:06:41;3.23;;;1.50;;
12165;SDS011;6146;48.128;11.476;2022-09-17T08:09:07;3.87;;;1.50;;
12165;SDS011;6146;48.128;11.476;2022-09-17T08:11:34;3.40;;;1.40;;
12165;SDS011;6146;48.128;11.476;2022-09-17T08:14:00;4.07;;;1.50;;
12165;SDS011;6146;48.128;11.476;2022-09-17T08:16:26;2.67;;;1.77;;
12165;SDS011;6146;48.128;11.476;2022-09-17T08:18:55;2.53;;;1.30;;
12165;SDS011;6146;48.128;11.476;2022-09-17T08:21:21;2.80;;;1.47;;
12165;SDS011;6146;48.128;11.476;2022-09-17T08:23:48;2.77;;;1.33;;
12165;SDS011;6146;48.128;11.476;2022-09-17T08:26:17;5.03;;;1.43;;
12165;SDS011;6146;48.128;11.476;2022-09-17T08:28:46;3.93;;;1.40;;
12165;SDS011;6146;48.128;11.476;2022-09-17T08:31:14;2.63;;;1.33;;
12165;SDS011;6146;48.128;11.476;2022-09-17T08:33:41;4.10;;;1.57;;
12165;SDS011;6146;48.128;11.476;2022-09-17T08:36:08;4.43;;;1.53;;
12165;SDS011;6146;48.128;11.476;2022-09-17T08:38:37;5.37;;;1.83;;
12165;SDS011;6146;48.128;11.476;2022-09-17T08:41:13;2.67;;;1.60;;
12165;SDS011;6146;48.128;11.476;2022-09-17T09:01:16;4.00;;;2.00;;
12165;SDS011;6146;48.128;11.476;2022-09-17T09:06:28;4.30;;;1.97;;
12165;SDS011;6146;48.128;11.476;2022-09-17T09:09:03;5.23;;;2.30;;
12165;SDS011;6146;48.128;11.476;2022-09-17T09:11:35;3.37;;;2.13;;
12165;SDS011;6146;48.128;11.476;2022-09-17T09:16:45;4.97;;;1.87;;
12165;SDS011;6146;48.128;11.476;2022-09-17T09:27:27;2.73;;;1.70;;
12165;SDS011;6146;48.128;11.476;2022-09-17T09:30:11;2.47;;;1.80;;
12165;SDS011;6146;48.128;11.476;2022-09-17T09:35:26;4.73;;;2.00;;
12165;SDS011;6146;48.128;11.476;2022-09-17T09:43:33;5.93;;;2.33;;
12165;SDS011;6146;48.128;11.476;2022-09-17T09:46:12;4.23;;;2.07;;
12165;SDS011;6146;48.128;11.476;2022-09-17T09:51:55;5.53;;;2.53;;
12165;SDS011;6146;48.128;11.476;2022-09-17T09:54:48;2.43;;;1.80;;
12165;SDS011;6146;48.128;11.476;2022-09-17T09:57:36;5.10;;;1.77;;
12165;SDS011;6146;48.128;11.476;2022-09-17T10:02:48;4.63;;;1.80;;
12165;SDS011;6146;48.128;11.476;2022-09-17T10:05:17;4.40;;;2.00;;
12165;SDS011;6146;48.128;11.476;2022-09-17T10:07:42;8.87;;;2.60;;
12165;SDS011;6146;48.128;11.476;2022-09-17T10:10:09;4.47;;;2.03;;
12165;SDS011;6146;48.128;11.476;2022-09-17T10:12:35;3.13;;;2.30;;
12165;SDS011;6146;48.128;11.476;2022-09-17T10:15:17;3.77;;;1.80;;
12165;SDS011;6146;48.128;11.476;2022-09-17T10:18:14;3.00;;;1.97;;
12165;SDS011;6146;48.128;11.476;2022-09-17T10:20:47;6.97;;;2.67;;
12165;SDS011;6146;48.128;11.476;2022-09-17T10:23:14;5.87;;;2.53;;
12165;SDS011;6146;48.128;11.476;2022-09-17T10:25:43;3.63;;;2.30;;
12165;SDS011;6146;48.128;11.476;2022-09-17T10:31:00;4.77;;;2.80;;
12165;SDS011;6146;48.128;11.476;2022-09-17T10:33:29;4.10;;;2.37;;
12165;SDS011;6146;48.128;11.476;2022-09-17T10:36:00;4.27;;;2.53;;
12165;SDS011;6146;48.128;11.476;2022-09-17T10:38:38;4.17;;;2.00;;
12165;SDS011;6146;48.128;11.476;2022-09-17T10:41:12;2.30;;;1.70;;
12165;SDS011;6146;48.128;11.476;2022-09-17T10:43:43;5.80;;;1.93;;
12165;SDS011;6146;48.128;11.476;2022-09-17T10:46:09;4.23;;;1.97;;
12165;SDS011;6146;48.128;11.476;2022-09-17T10:48:41;3.87;;;2.10;;
12165;SDS011;6146;48.128;11.476;2022-09-17T10:51:09;5.87;;;3.10;;
12165;SDS011;6146;48.128;11.476;2022-09-17T10:54:47;3.33;;;2.30;;
12165;SDS011;6146;48.128;11.476;2022-09-17T10:56:39;5.20;;;2.23;;
12165;SDS011;6146;48.128;11.476;2022-09-17T11:09:44;14.90;;;8.73;;
12165;SDS011;6146;48.128;11.476;2022-09-17T11:17:44;4.07;;;2.03;;
12165;SDS011;6146;48.128;11.476;2022-09-17T11:20:28;4.27;;;1.77;;
12165;SDS011;6146;48.128;11.476;2022-09-17T11:39:48;2.10;;;1.20;;
12165;SDS011;6146;48.128;11.476;2022-09-17T11:42:23;1.40;;;1.30;;
12165;SDS011;6146;48.128;11.476;2022-09-17T11:44:57;2.77;;;1.40;;
12165;SDS011;6146;48.128;11.476;2022-09-17T11:47:35;2.10;;;1.43;;
12165;SDS011;6146;48.128;11.476;2022-09-17T11:50:21;2.80;;;1.50;;
12165;SDS011;6146;48.128;11.476;2022-09-17T11:52:59;1.47;;;1.37;;
12165;SDS011;6146;48.128;11.476;2022-09-17T12:01:11;1.40;;;1.30;;
12165;SDS011;6146;48.128;11.476;2022-09-17T12:03:49;1.93;;;1.40;;
12165;SDS011;6146;48.128;11.476;2022-09-17T12:06:24;2.60;;;1.43;;
12165;SDS011;6146;48.128;11.476;2022-09-17T12:17:22;2.60;;;1.60;;
12165;SDS011;6146;48.128;11.476;2022-09-17T12:19:55;1.63;;;1.53;;
12165;SDS011;6146;48.128;11.476;2022-09-17T12:22:26;2.87;;;1.90;;
12165;SDS011;6146;48.128;11.476;2022-09-17T12:24:56;2.57;;;1.50;;
12165;SDS011;6146;48.128;11.476;2022-09-17T12:35:54;2.93;;;2.20;;
12165;SDS011;6146;48.128;11.476;2022-09-17T12:41:42;3.50;;;2.10;;
12165;SDS011;6146;48.128;11.476;2022-09-17T12:55:24;3.50;;;3.00;;
12165;SDS011;6146;48.128;11.476;2022-09-17T13:00:41;2.80;;;1.47;;
12165;SDS011;6146;48.128;11.476;2022-09-17T13:03:20;1.60;;;1.27;;
12165;SDS011;6146;48.128;11.476;2022-09-17T13:16:42;2.57;;;1.80;;
12165;SDS011;6146;48.128;11.476;2022-09-17T13:19:35;2.83;;;1.57;;
12165;SDS011;6146;48.128;11.476;2022-09-17T13:22:17;1.87;;;1.50;;
12165;SDS011;6146;48.128;11.476;2022-09-17T13:24:45;2.43;;;2.00;;
12165;SDS011;6146;48.128;11.476;2022-09-17T13:27:24;2.70;;;1.87;;
12165;SDS011;6146;48.128;11.476;2022-09-17T13:37:44;5.53;;;2.73;;
12165;SDS011;6146;48.128;11.476;2022-09-17T13:43:13;2.57;;;1.87;;
12165;SDS011;6146;48.128;11.476;2022-09-17T13:48:24;2.50;;;1.93;;
12165;SDS011;6146;48.128;11.476;2022-09-17T13:50:52;3.20;;;1.97;;
12165;SDS011;6146;48.128;11.476;2022-09-17T13:53:18;4.67;;;2.23;;
12165;SDS011;6146;48.128;11.476;2022-09-17T14:13:50;1.40;;;1.30;;
12165;SDS011;6146;48.128;11.476;2022-09-17T14:21:31;2.00;;;1.40;;
12165;SDS011;6146;48.128;11.476;2022-09-17T14:24:20;2.70;;;1.60;;
12165;SDS011;6146;48.128;11.476;2022-09-17T14:26:49;2.63;;;1.60;;
12165;SDS011;6146;48.128;11.476;2022-09-17T14:35:21;1.57;;;1.47;;
12165;SDS011;6146;48.128;11.476;2022-09-17T14:37:56;2.43;;;1.60;;
12165;SDS011;6146;48.128;11.476;2022-09-17T14:40:26;2.27;;;1.40;;
12165;SDS011;6146;48.128;11.476;2022-09-17T14:42:53;1.43;;;1.33;;
12165;SDS011;6146;48.128;11.476;2022-09-17T14:45:28;1.63;;;1.30;;
12165;SDS011;6146;48.128;11.476;2022-09-17T14:51:23;2.77;;;1.33;;
12165;SDS011;6146;48.128;11.476;2022-09-17T14:54:36;4.03;;;1.70;;
12165;SDS011;6146;48.128;11.476;2022-09-17T14:56:48;2.03;;;1.40;;
12165;SDS011;6146;48.128;11.476;2022-09-17T14:59:20;1.43;;;1.00;;
12165;SDS011;6146;48.128;11.476;2022-09-17T15:01:49;1.77;;;1.40;;
12165;SDS011;6146;48.128;11.476;2022-09-17T15:04:23;1.53;;;1.10;;
12165;SDS011;6146;48.128;11.476;2022-09-17T15:06:50;1.27;;;1.10;;
12165;SDS011;6146;48.128;11.476;2022-09-17T15:09:22;1.20;;;1.10;;
12165;SDS011;6146;48.128;11.476;2022-09-17T15:11:54;2.40;;;1.63;;
12165;SDS011;6146;48.128;11.476;2022-09-17T15:14:23;4.73;;;2.10;;
12165;SDS011;6146;48.128;11.476;2022-09-17T15:16:53;1.73;;;1.63;;
12165;SDS011;6146;48.128;11.476;2022-09-17T15:19:29;1.70;;;1.53;;
12165;SDS011;6146;48.128;11.476;2022-09-17T15:22:01;1.10;;;1.10;;
12165;SDS011;6146;48.128;11.476;2022-09-17T15:24:45;3.53;;;1.03;;
12165;SDS011;6146;48.128;11.476;2022-09-17T15:32:25;1.10;;;1.00;;
12165;SDS011;6146;48.128;11.476;2022-09-17T15:37:42;1.20;;;1.10;;
12165;SDS011;6146;48.128;11.476;2022-09-17T15:40:12;2.20;;;1.40;;
12165;SDS011;6146;48.128;11.476;2022-09-17T15:42:39;3.27;;;1.60;;
12165;SDS011;6146;48.128;11.476;2022-09-17T15:45:26;2.57;;;1.33;;
12165;SDS011;6146;48.128;11.476;2022-09-17T15:50:23;2.77;;;2.43;;
12165;SDS011;6146;48.128;11.476;2022-09-17T15:52:57;1.57;;;1.47;;
12165;SDS011;6146;48.128;11.476;2022-09-17T15:55:39;2.77;;;1.90;;
12165;SDS011;6146;48.128;11.476;2022-09-17T16:11:34;2.07;;;1.70;;
12165;SDS011;6146;48.128;11.476;2022-09-17T16:14:00;2.67;;;1.60;;
12165;SDS011;6146;48.128;11.476;2022-09-17T16:16:28;3.43;;;2.10;;
12165;SDS011;6146;48.128;11.476;2022-09-17T16:18:58;1.67;;;1.50;;
12165;SDS011;6146;48.128;11.476;2022-09-17T16:21:23;3.57;;;1.90;;
12165;SDS011;6146;48.128;11.476;2022-09-17T16:23:49;2.13;;;1.60;;
12165;SDS011;6146;48.128;11.476;2022-09-17T16:26:22;1.20;;;1.10;;
12165;SDS011;6146;48.128;11.476;2022-09-17T16:28:52;3.10;;;1.93;;
12165;SDS011;6146;48.128;11.476;2022-09-17T16:31:19;3.27;;;2.70;;
12165;SDS011;6146;48.128;11.476;2022-09-17T16:33:45;2.07;;;1.33;;
12165;SDS011;6146;48.128;11.476;2022-09-17T16:36:10;4.07;;;3.67;;
12165;SDS011;6146;48.128;11.476;2022-09-17T16:38:36;4.07;;;3.43;;
12165;SDS011;6146;48.128;11.476;2022-09-17T16:41:03;3.27;;;2.00;;
12165;SDS011;6146;48.128;11.476;2022-09-17T16:43:29;3.43;;;2.13;;
12165;SDS011;6146;48.128;11.476;2022-09-17T16:46:02;5.10;;;2.60;;
12165;SDS011;6146;48.128;11.476;2022-09-17T16:48:29;5.13;;;4.20;;
12165;SDS011;6146;48.128;11.476;2022-09-17T16:50:55;2.40;;;2.00;;
12165;SDS011;6146;48.128;11.476;2022-09-17T16:53:21;3.17;;;2.50;;
12165;SDS011;6146;48.128;11.476;2022-09-17T16:55:46;3.13;;;2.30;;
12165;SDS011;6146;48.128;11.476;2022-09-17T16:58:12;3.03;;;1.73;;
12165;SDS011;6146;48.128;11.476;2022-09-17T17:00:40;1.83;;;1.63;;
12165;SDS011;6146;48.128;11.476;2022-09-17T17:03:08;2.20;;;1.60;;
12165;SDS011;6146;48.128;11.476;2022-09-17T17:05:36;1.40;;;1.27;;
12165;SDS011;6146;48.128;11.476;2022-09-17T17:08:02;3.00;;;1.40;;
12165;SDS011;6146;48.128;11.476;2022-09-17T17:10:28;1.57;;;1.30;;
12165;SDS011;6146;48.128;11.476;2022-09-17T17:12:53;1.93;;;1.60;;
12165;SDS011;6146;48.128;11.476;2022-09-17T17:15:20;4.77;;;2.97;;
12165;SDS011;6146;48.128;11.476;2022-09-17T17:17:46;1.70;;;1.60;;
12165;SDS011;6146;48.128;11.476;2022-09-17T17:20:12;2.00;;;1.80;;
12165;SDS011;6146;48.128;11.476;2022-09-17T17:22:41;2.67;;;1.40;;
12165;SDS011;6146;48.128;11.476;2022-09-17T17:25:08;2.80;;;1.50;;
12165;SDS011;6146;48.128;11.476;2022-09-17T17:27:34;2.73;;;1.40;;
12165;SDS011;6146;48.128;11.476;2022-09-17T17:30:00;1.73;;;1.40;;
12165;SDS011;6146;48.128;11.476;2022-09-17T17:32:29;2.27;;;1.73;;
12165;SDS011;6146;48.128;11.476;2022-09-17T17:34:54;2.17;;;1.30;;
12165;SDS011;6146;48.128;11.476;2022-09-17T17:37:20;1.27;;;1.17;;
12165;SDS011;6146;48.128;11.476;2022-09-17T17:39:47;1.20;;;1.10;;
12165;SDS011;6146;48.128;11.476;2022-09-17T17:42:13;1.73;;;1.27;;
12165;SDS011;6146;48.128;11.476;2022-09-17T17:44:38;4.50;;;3.43;;
12165;SDS011;6146;48.128;11.476;2022-09-17T17:47:04;1.23;;;1.13;;
12165;SDS011;6146;48.128;11.476;2022-09-17T17:49:30;3.37;;;1.97;;
12165;SDS011;6146;48.128;11.476;2022-09-17T17:51:57;2.77;;;1.97;;
12165;SDS011;6146;48.128;11.476;2022-09-17T17:54:22;2.20;;;1.50;;
12165;SDS011;6146;48.128;11.476;2022-09-17T17:56:48;1.77;;;1.50;;
12165;SDS011;6146;48.128;11.476;2022-09-17T17:59:14;2.10;;;1.43;;
12165;SDS011;6146;48.128;11.476;2022-09-17T18:01:39;3.43;;;1.57;;
12165;SDS011;6146;48.128;11.476;2022-09-17T18:04:05;1.97;;;1.73;;
12165;SDS011;6146;48.128;11.476;2022-09-17T18:06:33;1.43;;;1.33;;
12165;SDS011;6146;48.128;11.476;2022-09-17T18:08:59;2.03;;;1.30;;
12165;SDS011;6146;48.128;11.476;2022-09-17T18:11:25;1.30;;;1.20;;
12165;SDS011;6146;48.128;11.476;2022-09-17T18:13:53;1.97;;;1.30;;
12165;SDS011;6146;48.128;11.476;2022-09-17T18:16:20;1.50;;;1.40;;
12165;SDS011;6146;48.128;11.476;2022-09-17T18:18:47;1.50;;;1.40;;
12165;SDS011;6146;48.128;11.476;2022-09-17T18:21:17;2.80;;;1.57;;
12165;SDS011;6146;48.128;11.476;2022-09-17T18:23:44;1.50;;;1.40;;
12165;SDS011;6146;48.128;11.476;2022-09-17T18:26:11;2.57;;;1.40;;
12165;SDS011;6146;48.128;11.476;2022-09-17T18:28:39;2.73;;;1.80;;
12165;SDS011;6146;48.128;11.476;2022-09-17T18:31:05;2.73;;;1.70;;
12165;SDS011;6146;48.128;11.476;2022-09-17T18:33:32;1.60;;;1.50;;
12165;SDS011;6146;48.128;11.476;2022-09-17T18:36:02;1.70;;;1.50;;
12165;SDS011;6146;48.128;11.476;2022-09-17T18:38:29;1.60;;;1.50;;
12165;SDS011;6146;48.128;11.476;2022-09-17T18:41:00;1.23;;;1.13;;
12165;SDS011;6146;48.128;11.476;2022-09-17T18:43:27;1.70;;;1.33;;
12165;SDS011;6146;48.128;11.476;2022-09-17T18:45:53;1.70;;;1.60;;
12165;SDS011;6146;48.128;11.476;2022-09-17T18:48:20;1.43;;;1.33;;
12165;SDS011;6146;48.128;11.476;2022-09-17T18:51:05;1.50;;;1.40;;
12165;SDS011;6146;48.128;11.476;2022-09-17T18:53:34;3.10;;;1.63;;
12165;SDS011;6146;48.128;11.476;2022-09-17T18:56:09;1.63;;;1.23;;
12165;SDS011;6146;48.128;11.476;2022-09-17T18:58:40;1.30;;;1.20;;
12165;SDS011;6146;48.128;11.476;2022-09-17T19:01:10;2.50;;;1.33;;
12165;SDS011;6146;48.128;11.476;2022-09-17T19:03:36;2.50;;;1.17;;
12165;SDS011;6146;48.128;11.476;2022-09-17T19:06:02;2.33;;;1.50;;
12165;SDS011;6146;48.128;11.476;2022-09-17T19:08:29;1.90;;;1.70;;
12165;SDS011;6146;48.128;11.476;2022-09-17T19:10:55;1.43;;;1.33;;
12165;SDS011;6146;48.128;11.476;2022-09-17T19:13:22;1.90;;;1.43;;
12165;SDS011;6146;48.128;11.476;2022-09-17T19:15:48;3.70;;;1.50;;
12165;SDS011;6146;48.128;11.476;2022-09-17T19:18:14;2.90;;;1.53;;
12165;SDS011;6146;48.128;11.476;2022-09-17T19:20:39;1.87;;;1.60;;
12165;SDS011;6146;48.128;11.476;2022-09-17T19:23:05;2.90;;;1.47;;